sensor_id;sensor_type;location;lat;lon;timestamp;P1;durP1;ratioP1;P2;durP2;ratioP2
69087;SDS011;56190;43.562;5.036;2023-04-12T00:02:12;7.28;;;3.50;;
69087;SDS011;56190;43.562;5.036;2023-04-12T00:04:37;9.95;;;4.60;;
69087;SDS011;56190;43.562;5.036;2023-04-12T00:07:03;7.65;;;3.03;;
69087;SDS011;56190;43.562;5.036;2023-04-12T00:09:30;7.80;;;3.53;;
69087;SDS011;56190;43.562;5.036;2023-04-12T00:11:57;5.60;;;3.20;;
69087;SDS011;56190;43.562;5.036;2023-04-12T00:14:22;5.55;;;3.10;;
69087;SDS011;56190;43.562;5.036;2023-04-12T00:16:48;7.32;;;3.45;;
69087;SDS011;56190;43.562;5.036;2023-04-12T00:19:13;8.55;;;3.40;;
69087;SDS011;56190;43.562;5.036;2023-04-12T00:21:41;9.27;;;3.40;;
69087;SDS011;56190;43.562;5.036;2023-04-12T00:24:06;7.85;;;3.10;;
69087;SDS011;56190;43.562;5.036;2023-04-12T00:26:31;7.55;;;3.55;;
69087;SDS011;56190;43.562;5.036;2023-04-12T00:28:57;9.25;;;3.20;;
69087;SDS011;56190;43.562;5.036;2023-04-12T00:31:22;8.63;;;3.30;;
69087;SDS011;56190;43.562;5.036;2023-04-12T00:33:47;9.50;;;3.60;;
69087;SDS011;56190;43.562;5.036;2023-04-12T00:36:13;6.97;;;3.50;;
69087;SDS011;56190;43.562;5.036;2023-04-12T00:38:38;5.95;;;3.20;;
69087;SDS011;56190;43.562;5.036;2023-04-12T00:41:03;5.93;;;3.38;;
69087;SDS011;56190;43.562;5.036;2023-04-12T00:43:28;8.02;;;3.22;;
69087;SDS011;56190;43.562;5.036;2023-04-12T00:45:54;6.15;;;2.80;;
69087;SDS011;56190;43.562;5.036;2023-04-12T00:48:21;8.43;;;3.78;;
69087;SDS011;56190;43.562;5.036;2023-04-12T00:50:46;7.80;;;3.55;;
69087;SDS011;56190;43.562;5.036;2023-04-12T00:53:12;8.38;;;3.42;;
69087;SDS011;56190;43.562;5.036;2023-04-12T00:55:41;7.80;;;3.22;;
69087;SDS011;56190;43.562;5.036;2023-04-12T00:58:07;7.88;;;3.63;;
69087;SDS011;56190;43.562;5.036;2023-04-12T01:00:33;10.70;;;3.22;;
69087;SDS011;56190;43.562;5.036;2023-04-12T01:02:58;8.35;;;3.60;;
69087;SDS011;56190;43.562;5.036;2023-04-12T01:05:26;6.40;;;3.20;;
69087;SDS011;56190;43.562;5.036;2023-04-12T01:07:57;9.65;;;3.90;;
69087;SDS011;56190;43.562;5.036;2023-04-12T01:15:27;7.13;;;3.60;;
69087;SDS011;56190;43.562;5.036;2023-04-12T01:17:56;8.90;;;4.22;;
69087;SDS011;56190;43.562;5.036;2023-04-12T01:20:27;6.80;;;3.38;;
69087;SDS011;56190;43.562;5.036;2023-04-12T01:25:35;7.72;;;3.40;;
69087;SDS011;56190;43.562;5.036;2023-04-12T01:28:03;5.97;;;3.42;;
69087;SDS011;56190;43.562;5.036;2023-04-12T01:30:28;7.13;;;3.47;;
69087;SDS011;56190;43.562;5.036;2023-04-12T01:32:55;7.35;;;3.70;;
69087;SDS011;56190;43.562;5.036;2023-04-12T01:35:22;8.45;;;3.53;;
69087;SDS011;56190;43.562;5.036;2023-04-12T01:37:48;6.60;;;3.65;;
69087;SDS011;56190;43.562;5.036;2023-04-12T01:40:13;9.13;;;3.88;;
69087;SDS011;56190;43.562;5.036;2023-04-12T01:42:38;8.30;;;3.70;;
69087;SDS011;56190;43.562;5.036;2023-04-12T01:45:04;8.38;;;4.03;;
69087;SDS011;56190;43.562;5.036;2023-04-12T01:47:30;6.45;;;3.85;;
69087;SDS011;56190;43.562;5.036;2023-04-12T01:52:24;6.18;;;3.40;;
69087;SDS011;56190;43.562;5.036;2023-04-12T01:54:53;11.07;;;4.30;;
69087;SDS011;56190;43.562;5.036;2023-04-12T01:57:21;10.20;;;3.97;;
69087;SDS011;56190;43.562;5.036;2023-04-12T01:59:47;7.82;;;4.20;;
69087;SDS011;56190;43.562;5.036;2023-04-12T02:02:14;7.63;;;4.00;;
69087;SDS011;56190;43.562;5.036;2023-04-12T02:04:40;5.57;;;3.95;;
69087;SDS011;56190;43.562;5.036;2023-04-12T02:07:05;6.03;;;4.10;;
69087;SDS011;56190;43.562;5.036;2023-04-12T02:09:35;9.73;;;4.68;;
69087;SDS011;56190;43.562;5.036;2023-04-12T02:12:00;10.88;;;4.90;;
69087;SDS011;56190;43.562;5.036;2023-04-12T02:14:25;7.95;;;5.22;;
69087;SDS011;56190;43.562;5.036;2023-04-12T02:16:51;11.50;;;5.43;;
69087;SDS011;56190;43.562;5.036;2023-04-12T02:19:18;10.00;;;5.20;;
69087;SDS011;56190;43.562;5.036;2023-04-12T02:21:44;8.35;;;5.03;;
69087;SDS011;56190;43.562;5.036;2023-04-12T02:24:10;7.13;;;4.97;;
69087;SDS011;56190;43.562;5.036;2023-04-12T02:26:35;9.35;;;5.50;;
69087;SDS011;56190;43.562;5.036;2023-04-12T02:29:01;9.65;;;5.72;;
69087;SDS011;56190;43.562;5.036;2023-04-12T02:31:27;7.90;;;5.43;;
69087;SDS011;56190;43.562;5.036;2023-04-12T02:33:52;10.27;;;5.65;;
69087;SDS011;56190;43.562;5.036;2023-04-12T02:36:17;9.27;;;4.70;;
69087;SDS011;56190;43.562;5.036;2023-04-12T02:38:42;9.52;;;4.50;;
69087;SDS011;56190;43.562;5.036;2023-04-12T02:41:08;7.90;;;4.47;;
69087;SDS011;56190;43.562;5.036;2023-04-12T02:43:33;8.48;;;3.95;;
69087;SDS011;56190;43.562;5.036;2023-04-12T02:45:58;8.50;;;4.60;;
69087;SDS011;56190;43.562;5.036;2023-04-12T02:48:24;8.88;;;4.72;;
69087;SDS011;56190;43.562;5.036;2023-04-12T02:50:49;8.52;;;5.13;;
69087;SDS011;56190;43.562;5.036;2023-04-12T02:53:14;8.52;;;5.03;;
69087;SDS011;56190;43.562;5.036;2023-04-12T02:55:40;8.60;;;4.55;;
69087;SDS011;56190;43.562;5.036;2023-04-12T02:58:05;9.27;;;5.22;;
69087;SDS011;56190;43.562;5.036;2023-04-12T03:00:30;7.72;;;5.35;;
69087;SDS011;56190;43.562;5.036;2023-04-12T03:02:56;13.95;;;5.45;;
69087;SDS011;56190;43.562;5.036;2023-04-12T03:05:22;10.90;;;6.03;;
69087;SDS011;56190;43.562;5.036;2023-04-12T03:07:48;13.60;;;6.65;;
69087;SDS011;56190;43.562;5.036;2023-04-12T03:10:13;13.40;;;7.90;;
69087;SDS011;56190;43.562;5.036;2023-04-12T03:12:38;11.63;;;7.60;;
69087;SDS011;56190;43.562;5.036;2023-04-12T03:15:03;16.02;;;8.15;;
69087;SDS011;56190;43.562;5.036;2023-04-12T03:17:29;13.20;;;7.90;;
69087;SDS011;56190;43.562;5.036;2023-04-12T03:19:55;11.63;;;8.75;;
69087;SDS011;56190;43.562;5.036;2023-04-12T03:22:22;19.90;;;12.00;;
69087;SDS011;56190;43.562;5.036;2023-04-12T03:24:47;18.80;;;11.55;;
69087;SDS011;56190;43.562;5.036;2023-04-12T03:27:13;18.30;;;12.10;;
69087;SDS011;56190;43.562;5.036;2023-04-12T03:29:38;19.70;;;13.57;;
69087;SDS011;56190;43.562;5.036;2023-04-12T03:32:04;17.65;;;11.75;;
69087;SDS011;56190;43.562;5.036;2023-04-12T03:34:29;23.70;;;14.43;;
69087;SDS011;56190;43.562;5.036;2023-04-12T03:36:56;21.45;;;14.15;;
69087;SDS011;56190;43.562;5.036;2023-04-12T03:39:22;14.63;;;11.70;;
69087;SDS011;56190;43.562;5.036;2023-04-12T03:41:47;22.80;;;13.32;;
69087;SDS011;56190;43.562;5.036;2023-04-12T03:44:12;18.48;;;12.75;;
69087;SDS011;56190;43.562;5.036;2023-04-12T03:46:38;23.00;;;13.27;;
69087;SDS011;56190;43.562;5.036;2023-04-12T03:49:03;17.45;;;11.93;;
69087;SDS011;56190;43.562;5.036;2023-04-12T03:51:28;18.95;;;12.68;;
69087;SDS011;56190;43.562;5.036;2023-04-12T03:53:54;18.08;;;10.82;;
69087;SDS011;56190;43.562;5.036;2023-04-12T03:56:20;21.70;;;13.85;;
69087;SDS011;56190;43.562;5.036;2023-04-12T03:58:45;18.60;;;12.00;;
69087;SDS011;56190;43.562;5.036;2023-04-12T04:01:11;17.38;;;11.73;;
69087;SDS011;56190;43.562;5.036;2023-04-12T04:03:37;24.20;;;15.65;;
69087;SDS011;56190;43.562;5.036;2023-04-12T04:06:05;19.45;;;13.55;;
69087;SDS011;56190;43.562;5.036;2023-04-12T04:08:30;21.23;;;13.95;;
69087;SDS011;56190;43.562;5.036;2023-04-12T04:10:58;21.15;;;13.60;;
69087;SDS011;56190;43.562;5.036;2023-04-12T04:13:24;24.52;;;14.77;;
69087;SDS011;56190;43.562;5.036;2023-04-12T04:15:50;19.73;;;14.70;;
69087;SDS011;56190;43.562;5.036;2023-04-12T04:18:15;25.45;;;16.02;;
69087;SDS011;56190;43.562;5.036;2023-04-12T04:20:40;21.13;;;14.60;;
69087;SDS011;56190;43.562;5.036;2023-04-12T04:23:06;23.40;;;15.75;;
69087;SDS011;56190;43.562;5.036;2023-04-12T04:25:34;19.25;;;14.68;;
69087;SDS011;56190;43.562;5.036;2023-04-12T04:27:59;23.45;;;14.90;;
69087;SDS011;56190;43.562;5.036;2023-04-12T04:30:26;25.30;;;15.93;;
69087;SDS011;56190;43.562;5.036;2023-04-12T04:32:51;24.13;;;13.68;;
69087;SDS011;56190;43.562;5.036;2023-04-12T04:35:17;25.00;;;16.23;;
69087;SDS011;56190;43.562;5.036;2023-04-12T04:37:42;25.60;;;15.63;;
69087;SDS011;56190;43.562;5.036;2023-04-12T04:40:08;22.73;;;14.40;;
69087;SDS011;56190;43.562;5.036;2023-04-12T04:42:35;20.10;;;13.55;;
69087;SDS011;56190;43.562;5.036;2023-04-12T04:45:02;20.55;;;12.30;;
69087;SDS011;56190;43.562;5.036;2023-04-12T04:47:36;25.85;;;13.48;;
69087;SDS011;56190;43.562;5.036;2023-04-12T04:50:01;24.08;;;13.77;;
69087;SDS011;56190;43.562;5.036;2023-04-12T04:52:27;28.52;;;15.52;;
69087;SDS011;56190;43.562;5.036;2023-04-12T04:54:52;32.38;;;17.08;;
69087;SDS011;56190;43.562;5.036;2023-04-12T04:57:21;30.80;;;17.50;;
69087;SDS011;56190;43.562;5.036;2023-04-12T04:59:46;35.35;;;17.38;;
69087;SDS011;56190;43.562;5.036;2023-04-12T05:02:11;33.75;;;17.85;;
69087;SDS011;56190;43.562;5.036;2023-04-12T05:04:37;34.70;;;17.40;;
69087;SDS011;56190;43.562;5.036;2023-04-12T05:07:02;38.20;;;19.60;;
69087;SDS011;56190;43.562;5.036;2023-04-12T05:09:27;37.25;;;19.77;;
69087;SDS011;56190;43.562;5.036;2023-04-12T05:11:52;39.70;;;21.63;;
69087;SDS011;56190;43.562;5.036;2023-04-12T05:14:17;43.97;;;21.95;;
69087;SDS011;56190;43.562;5.036;2023-04-12T05:16:43;43.22;;;20.85;;
69087;SDS011;56190;43.562;5.036;2023-04-12T05:19:08;42.78;;;22.63;;
69087;SDS011;56190;43.562;5.036;2023-04-12T05:21:34;47.88;;;23.75;;
69087;SDS011;56190;43.562;5.036;2023-04-12T05:23:59;50.88;;;22.95;;
69087;SDS011;56190;43.562;5.036;2023-04-12T05:26:24;43.88;;;21.85;;
69087;SDS011;56190;43.562;5.036;2023-04-12T05:28:50;48.00;;;21.40;;
69087;SDS011;56190;43.562;5.036;2023-04-12T05:31:15;48.95;;;22.70;;
69087;SDS011;56190;43.562;5.036;2023-04-12T05:33:40;45.17;;;21.05;;
69087;SDS011;56190;43.562;5.036;2023-04-12T05:36:05;49.83;;;22.88;;
69087;SDS011;56190;43.562;5.036;2023-04-12T05:38:31;44.22;;;21.95;;
69087;SDS011;56190;43.562;5.036;2023-04-12T05:40:56;44.70;;;22.02;;
69087;SDS011;56190;43.562;5.036;2023-04-12T05:43:22;44.65;;;22.30;;
69087;SDS011;56190;43.562;5.036;2023-04-12T05:45:48;68.45;;;27.95;;
69087;SDS011;56190;43.562;5.036;2023-04-12T05:48:14;60.25;;;29.80;;
69087;SDS011;56190;43.562;5.036;2023-04-12T05:50:39;52.75;;;26.95;;
69087;SDS011;56190;43.562;5.036;2023-04-12T05:53:04;54.85;;;27.20;;
69087;SDS011;56190;43.562;5.036;2023-04-12T05:55:30;58.50;;;26.85;;
69087;SDS011;56190;43.562;5.036;2023-04-12T05:57:55;64.55;;;29.33;;
69087;SDS011;56190;43.562;5.036;2023-04-12T06:00:22;65.15;;;28.73;;
69087;SDS011;56190;43.562;5.036;2023-04-12T06:02:48;52.03;;;26.13;;
69087;SDS011;56190;43.562;5.036;2023-04-12T06:05:14;53.65;;;24.98;;
69087;SDS011;56190;43.562;5.036;2023-04-12T06:07:41;47.05;;;25.58;;
69087;SDS011;56190;43.562;5.036;2023-04-12T06:10:11;53.05;;;26.45;;
69087;SDS011;56190;43.562;5.036;2023-04-12T06:12:37;51.20;;;23.67;;
69087;SDS011;56190;43.562;5.036;2023-04-12T06:15:02;44.00;;;22.67;;
69087;SDS011;56190;43.562;5.036;2023-04-12T06:17:27;51.22;;;24.35;;
69087;SDS011;56190;43.562;5.036;2023-04-12T06:19:53;46.30;;;25.20;;
69087;SDS011;56190;43.562;5.036;2023-04-12T06:22:18;47.63;;;24.38;;
69087;SDS011;56190;43.562;5.036;2023-04-12T06:24:43;40.63;;;20.90;;
69087;SDS011;56190;43.562;5.036;2023-04-12T06:27:08;37.80;;;22.10;;
69087;SDS011;56190;43.562;5.036;2023-04-12T06:29:34;37.75;;;21.75;;
69087;SDS011;56190;43.562;5.036;2023-04-12T06:31:59;45.30;;;23.40;;
69087;SDS011;56190;43.562;5.036;2023-04-12T06:34:24;41.10;;;23.27;;
69087;SDS011;56190;43.562;5.036;2023-04-12T06:36:50;40.60;;;23.13;;
69087;SDS011;56190;43.562;5.036;2023-04-12T06:39:15;37.08;;;21.90;;
69087;SDS011;56190;43.562;5.036;2023-04-12T06:41:41;35.88;;;22.38;;
69087;SDS011;56190;43.562;5.036;2023-04-12T06:44:07;33.92;;;20.45;;
69087;SDS011;56190;43.562;5.036;2023-04-12T06:46:33;39.10;;;23.02;;
69087;SDS011;56190;43.562;5.036;2023-04-12T06:48:58;35.65;;;20.90;;
69087;SDS011;56190;43.562;5.036;2023-04-12T06:51:23;34.78;;;19.95;;
69087;SDS011;56190;43.562;5.036;2023-04-12T06:53:49;33.95;;;20.73;;
69087;SDS011;56190;43.562;5.036;2023-04-12T06:56:14;29.75;;;19.15;;
69087;SDS011;56190;43.562;5.036;2023-04-12T06:58:39;27.60;;;17.90;;
69087;SDS011;56190;43.562;5.036;2023-04-12T07:01:07;32.92;;;20.05;;
69087;SDS011;56190;43.562;5.036;2023-04-12T07:03:34;30.73;;;18.27;;
69087;SDS011;56190;43.562;5.036;2023-04-12T07:05:59;28.27;;;18.05;;
69087;SDS011;56190;43.562;5.036;2023-04-12T07:08:27;29.80;;;19.20;;
69087;SDS011;56190;43.562;5.036;2023-04-12T07:10:52;28.50;;;17.77;;
69087;SDS011;56190;43.562;5.036;2023-04-12T07:13:18;28.75;;;18.17;;
69087;SDS011;56190;43.562;5.036;2023-04-12T07:15:43;29.40;;;17.02;;
69087;SDS011;56190;43.562;5.036;2023-04-12T07:18:08;28.10;;;16.88;;
69087;SDS011;56190;43.562;5.036;2023-04-12T07:20:33;25.70;;;15.90;;
69087;SDS011;56190;43.562;5.036;2023-04-12T07:22:59;27.27;;;16.38;;
69087;SDS011;56190;43.562;5.036;2023-04-12T07:25:24;28.63;;;17.10;;
69087;SDS011;56190;43.562;5.036;2023-04-12T07:27:49;23.98;;;15.45;;
69087;SDS011;56190;43.562;5.036;2023-04-12T07:30:14;26.70;;;16.50;;
69087;SDS011;56190;43.562;5.036;2023-04-12T07:32:40;24.67;;;15.90;;
69087;SDS011;56190;43.562;5.036;2023-04-12T07:35:06;20.75;;;14.07;;
69087;SDS011;56190;43.562;5.036;2023-04-12T07:37:31;24.77;;;14.93;;
69087;SDS011;56190;43.562;5.036;2023-04-12T07:39:56;19.30;;;13.45;;
69087;SDS011;56190;43.562;5.036;2023-04-12T07:42:21;20.58;;;13.73;;
69087;SDS011;56190;43.562;5.036;2023-04-12T07:44:47;19.65;;;13.38;;
69087;SDS011;56190;43.562;5.036;2023-04-12T07:47:12;18.45;;;11.98;;
69087;SDS011;56190;43.562;5.036;2023-04-12T07:49:37;15.00;;;10.95;;
69087;SDS011;56190;43.562;5.036;2023-04-12T07:52:02;16.02;;;10.95;;
69087;SDS011;56190;43.562;5.036;2023-04-12T07:54:28;17.15;;;10.50;;
69087;SDS011;56190;43.562;5.036;2023-04-12T07:56:59;17.23;;;10.80;;
69087;SDS011;56190;43.562;5.036;2023-04-12T07:59:25;17.20;;;10.50;;
69087;SDS011;56190;43.562;5.036;2023-04-12T08:01:50;14.18;;;10.38;;
69087;SDS011;56190;43.562;5.036;2023-04-12T08:04:16;14.00;;;9.50;;
69087;SDS011;56190;43.562;5.036;2023-04-12T08:06:41;14.52;;;9.38;;
69087;SDS011;56190;43.562;5.036;2023-04-12T08:09:06;17.23;;;10.32;;
69087;SDS011;56190;43.562;5.036;2023-04-12T08:11:32;17.08;;;10.52;;
69087;SDS011;56190;43.562;5.036;2023-04-12T08:13:59;14.50;;;10.13;;
69087;SDS011;56190;43.562;5.036;2023-04-12T08:16:24;15.18;;;9.15;;
69087;SDS011;56190;43.562;5.036;2023-04-12T08:18:50;11.40;;;8.32;;
69087;SDS011;56190;43.562;5.036;2023-04-12T08:21:15;15.10;;;7.78;;
69087;SDS011;56190;43.562;5.036;2023-04-12T08:23:41;10.85;;;6.82;;
69087;SDS011;56190;43.562;5.036;2023-04-12T08:26:06;10.30;;;7.22;;
69087;SDS011;56190;43.562;5.036;2023-04-12T08:28:31;11.98;;;6.82;;
69087;SDS011;56190;43.562;5.036;2023-04-12T08:30:57;10.25;;;6.50;;
69087;SDS011;56190;43.562;5.036;2023-04-12T08:33:23;9.85;;;5.95;;
69087;SDS011;56190;43.562;5.036;2023-04-12T08:35:48;11.60;;;6.70;;
69087;SDS011;56190;43.562;5.036;2023-04-12T08:38:14;9.70;;;6.30;;
69087;SDS011;56190;43.562;5.036;2023-04-12T08:40:40;9.30;;;6.07;;
69087;SDS011;56190;43.562;5.036;2023-04-12T08:43:06;9.25;;;5.40;;
69087;SDS011;56190;43.562;5.036;2023-04-12T08:45:33;9.40;;;5.00;;
69087;SDS011;56190;43.562;5.036;2023-04-12T08:47:59;8.93;;;5.03;;
69087;SDS011;56190;43.562;5.036;2023-04-12T08:50:26;9.73;;;5.28;;
69087;SDS011;56190;43.562;5.036;2023-04-12T08:52:52;8.20;;;4.68;;
69087;SDS011;56190;43.562;5.036;2023-04-12T08:55:17;7.50;;;4.97;;
69087;SDS011;56190;43.562;5.036;2023-04-12T08:57:42;6.65;;;4.57;;
69087;SDS011;56190;43.562;5.036;2023-04-12T09:00:08;10.00;;;4.75;;
69087;SDS011;56190;43.562;5.036;2023-04-12T09:02:37;6.90;;;4.60;;
69087;SDS011;56190;43.562;5.036;2023-04-12T09:05:02;10.18;;;5.15;;
69087;SDS011;56190;43.562;5.036;2023-04-12T09:07:28;15.65;;;8.68;;
69087;SDS011;56190;43.562;5.036;2023-04-12T09:09:55;11.93;;;7.65;;
69087;SDS011;56190;43.562;5.036;2023-04-12T09:12:21;10.32;;;7.63;;
69087;SDS011;56190;43.562;5.036;2023-04-12T09:14:48;15.57;;;10.05;;
69087;SDS011;56190;43.562;5.036;2023-04-12T09:17:28;15.77;;;10.23;;
69087;SDS011;56190;43.562;5.036;2023-04-12T09:19:53;13.50;;;9.43;;
69087;SDS011;56190;43.562;5.036;2023-04-12T09:22:33;14.80;;;8.85;;
69087;SDS011;56190;43.562;5.036;2023-04-12T09:24:59;13.35;;;8.80;;
69087;SDS011;56190;43.562;5.036;2023-04-12T09:27:25;15.38;;;9.57;;
69087;SDS011;56190;43.562;5.036;2023-04-12T09:29:52;15.05;;;9.20;;
69087;SDS011;56190;43.562;5.036;2023-04-12T09:32:30;13.25;;;8.43;;
69087;SDS011;56190;43.562;5.036;2023-04-12T09:34:56;11.90;;;8.20;;
69087;SDS011;56190;43.562;5.036;2023-04-12T09:37:21;12.98;;;7.30;;
69087;SDS011;56190;43.562;5.036;2023-04-12T09:39:47;12.73;;;7.03;;
69087;SDS011;56190;43.562;5.036;2023-04-12T09:42:12;10.45;;;5.68;;
69087;SDS011;56190;43.562;5.036;2023-04-12T09:44:39;9.25;;;5.50;;
69087;SDS011;56190;43.562;5.036;2023-04-12T09:47:05;8.00;;;4.63;;
69087;SDS011;56190;43.562;5.036;2023-04-12T09:52:03;7.03;;;4.55;;
69087;SDS011;56190;43.562;5.036;2023-04-12T09:54:29;7.38;;;4.22;;
69087;SDS011;56190;43.562;5.036;2023-04-12T09:56:55;6.15;;;3.88;;
69087;SDS011;56190;43.562;5.036;2023-04-12T09:59:21;8.35;;;3.90;;
69087;SDS011;56190;43.562;5.036;2023-04-12T10:01:48;6.30;;;3.65;;
69087;SDS011;56190;43.562;5.036;2023-04-12T10:04:13;10.90;;;3.70;;
69087;SDS011;56190;43.562;5.036;2023-04-12T10:06:38;8.48;;;4.35;;
69087;SDS011;56190;43.562;5.036;2023-04-12T10:09:05;9.40;;;5.68;;
69087;SDS011;56190;43.562;5.036;2023-04-12T10:11:32;8.98;;;5.50;;
69087;SDS011;56190;43.562;5.036;2023-04-12T10:13:58;11.35;;;5.20;;
69087;SDS011;56190;43.562;5.036;2023-04-12T10:16:24;11.85;;;6.60;;
69087;SDS011;56190;43.562;5.036;2023-04-12T10:18:50;9.20;;;5.68;;
69087;SDS011;56190;43.562;5.036;2023-04-12T10:21:16;11.25;;;6.80;;
69087;SDS011;56190;43.562;5.036;2023-04-12T10:23:45;10.07;;;5.95;;
69087;SDS011;56190;43.562;5.036;2023-04-12T10:26:11;10.07;;;6.00;;
69087;SDS011;56190;43.562;5.036;2023-04-12T10:28:39;9.30;;;5.40;;
69087;SDS011;56190;43.562;5.036;2023-04-12T10:33:48;8.80;;;5.25;;
69087;SDS011;56190;43.562;5.036;2023-04-12T10:36:14;8.60;;;4.93;;
69087;SDS011;56190;43.562;5.036;2023-04-12T10:38:44;8.15;;;5.00;;
69087;SDS011;56190;43.562;5.036;2023-04-12T10:41:16;6.28;;;3.20;;
69087;SDS011;56190;43.562;5.036;2023-04-12T10:43:43;3.45;;;2.30;;
69087;SDS011;56190;43.562;5.036;2023-04-12T10:46:30;6.10;;;2.92;;
69087;SDS011;56190;43.562;5.036;2023-04-12T10:48:53;6.40;;;2.42;;
69087;SDS011;56190;43.562;5.036;2023-04-12T10:51:21;5.82;;;2.58;;
69087;SDS011;56190;43.562;5.036;2023-04-12T10:54:35;8.10;;;2.70;;
69087;SDS011;56190;43.562;5.036;2023-04-12T10:56:37;4.35;;;2.40;;
69087;SDS011;56190;43.562;5.036;2023-04-12T10:59:03;5.22;;;2.70;;
69087;SDS011;56190;43.562;5.036;2023-04-12T11:01:28;5.13;;;2.60;;
69087;SDS011;56190;43.562;5.036;2023-04-12T11:04:07;4.65;;;2.20;;
69087;SDS011;56190;43.562;5.036;2023-04-12T11:09:15;4.90;;;2.50;;
69087;SDS011;56190;43.562;5.036;2023-04-12T11:11:40;5.45;;;2.13;;
69087;SDS011;56190;43.562;5.036;2023-04-12T11:14:08;4.60;;;2.25;;
69087;SDS011;56190;43.562;5.036;2023-04-12T11:16:33;5.50;;;2.60;;
69087;SDS011;56190;43.562;5.036;2023-04-12T11:18:58;8.75;;;2.78;;
69087;SDS011;56190;43.562;5.036;2023-04-12T11:21:24;5.00;;;2.45;;
69087;SDS011;56190;43.562;5.036;2023-04-12T11:23:50;4.00;;;2.63;;
69087;SDS011;56190;43.562;5.036;2023-04-12T11:26:19;6.25;;;2.88;;
69087;SDS011;56190;43.562;5.036;2023-04-12T11:28:46;6.65;;;2.03;;
69087;SDS011;56190;43.562;5.036;2023-04-12T11:31:12;6.50;;;2.63;;
69087;SDS011;56190;43.562;5.036;2023-04-12T11:33:38;6.50;;;2.75;;
69087;SDS011;56190;43.562;5.036;2023-04-12T11:36:10;4.38;;;2.55;;
69087;SDS011;56190;43.562;5.036;2023-04-12T11:38:36;6.47;;;3.67;;
69087;SDS011;56190;43.562;5.036;2023-04-12T11:41:02;8.13;;;4.47;;
69087;SDS011;56190;43.562;5.036;2023-04-12T11:43:29;7.13;;;4.63;;
69087;SDS011;56190;43.562;5.036;2023-04-12T11:45:58;7.72;;;4.80;;
69087;SDS011;56190;43.562;5.036;2023-04-12T11:48:27;10.20;;;5.57;;
69087;SDS011;56190;43.562;5.036;2023-04-12T11:50:52;10.25;;;6.13;;
69087;SDS011;56190;43.562;5.036;2023-04-12T11:53:18;9.23;;;6.10;;
69087;SDS011;56190;43.562;5.036;2023-04-12T11:55:49;10.00;;;5.80;;
69087;SDS011;56190;43.562;5.036;2023-04-12T11:58:16;11.27;;;5.60;;
69087;SDS011;56190;43.562;5.036;2023-04-12T12:00:42;11.43;;;6.00;;
69087;SDS011;56190;43.562;5.036;2023-04-12T12:03:08;11.45;;;6.40;;
69087;SDS011;56190;43.562;5.036;2023-04-12T12:05:33;13.88;;;5.70;;
69087;SDS011;56190;43.562;5.036;2023-04-12T12:08:01;13.18;;;5.95;;
69087;SDS011;56190;43.562;5.036;2023-04-12T12:10:29;8.98;;;5.28;;
69087;SDS011;56190;43.562;5.036;2023-04-12T12:12:56;6.68;;;4.10;;
69087;SDS011;56190;43.562;5.036;2023-04-12T12:15:21;9.20;;;4.90;;
69087;SDS011;56190;43.562;5.036;2023-04-12T12:17:49;11.30;;;5.75;;
69087;SDS011;56190;43.562;5.036;2023-04-12T12:20:18;10.95;;;5.30;;
69087;SDS011;56190;43.562;5.036;2023-04-12T12:22:44;8.75;;;4.45;;
69087;SDS011;56190;43.562;5.036;2023-04-12T12:25:10;10.27;;;4.25;;
69087;SDS011;56190;43.562;5.036;2023-04-12T12:27:36;8.30;;;4.75;;
69087;SDS011;56190;43.562;5.036;2023-04-12T12:30:02;10.10;;;4.88;;
69087;SDS011;56190;43.562;5.036;2023-04-12T12:32:32;8.15;;;4.78;;
69087;SDS011;56190;43.562;5.036;2023-04-12T12:34:58;7.93;;;4.13;;
69087;SDS011;56190;43.562;5.036;2023-04-12T12:37:23;9.30;;;4.75;;
69087;SDS011;56190;43.562;5.036;2023-04-12T12:42:47;7.30;;;3.80;;
69087;SDS011;56190;43.562;5.036;2023-04-12T12:47:50;7.47;;;3.60;;
69087;SDS011;56190;43.562;5.036;2023-04-12T12:50:17;9.70;;;4.10;;
69087;SDS011;56190;43.562;5.036;2023-04-12T12:52:44;10.48;;;4.53;;
69087;SDS011;56190;43.562;5.036;2023-04-12T12:55:10;7.07;;;3.50;;
69087;SDS011;56190;43.562;5.036;2023-04-12T12:57:35;6.47;;;3.55;;
69087;SDS011;56190;43.562;5.036;2023-04-12T13:00:01;5.70;;;2.92;;
69087;SDS011;56190;43.562;5.036;2023-04-12T13:02:28;9.00;;;3.30;;
69087;SDS011;56190;43.562;5.036;2023-04-12T13:04:53;8.30;;;3.78;;
69087;SDS011;56190;43.562;5.036;2023-04-12T13:07:19;7.63;;;4.03;;
69087;SDS011;56190;43.562;5.036;2023-04-12T13:09:44;7.85;;;3.65;;
69087;SDS011;56190;43.562;5.036;2023-04-12T13:12:09;6.10;;;4.00;;
69087;SDS011;56190;43.562;5.036;2023-04-12T13:14:35;6.30;;;3.55;;
69087;SDS011;56190;43.562;5.036;2023-04-12T13:17:00;6.95;;;3.72;;
69087;SDS011;56190;43.562;5.036;2023-04-12T13:19:26;6.43;;;3.30;;
69087;SDS011;56190;43.562;5.036;2023-04-12T13:21:51;5.68;;;3.40;;
69087;SDS011;56190;43.562;5.036;2023-04-12T13:24:16;10.27;;;3.35;;
69087;SDS011;56190;43.562;5.036;2023-04-12T13:26:41;5.93;;;2.97;;
69087;SDS011;56190;43.562;5.036;2023-04-12T13:29:07;7.25;;;2.90;;
69087;SDS011;56190;43.562;5.036;2023-04-12T13:31:32;4.80;;;3.05;;
69087;SDS011;56190;43.562;5.036;2023-04-12T13:33:57;5.50;;;2.95;;
69087;SDS011;56190;43.562;5.036;2023-04-12T13:36:22;7.28;;;3.78;;
69087;SDS011;56190;43.562;5.036;2023-04-12T13:38:48;8.10;;;3.95;;
69087;SDS011;56190;43.562;5.036;2023-04-12T13:41:13;9.52;;;4.05;;
69087;SDS011;56190;43.562;5.036;2023-04-12T13:43:39;7.50;;;4.18;;
69087;SDS011;56190;43.562;5.036;2023-04-12T13:46:04;13.10;;;4.10;;
69087;SDS011;56190;43.562;5.036;2023-04-12T13:48:31;8.13;;;3.30;;
69087;SDS011;56190;43.562;5.036;2023-04-12T13:50:56;15.85;;;4.10;;
69087;SDS011;56190;43.562;5.036;2023-04-12T13:53:22;7.80;;;3.70;;
69087;SDS011;56190;43.562;5.036;2023-04-12T13:55:47;9.25;;;3.65;;
69087;SDS011;56190;43.562;5.036;2023-04-12T13:58:14;11.25;;;4.07;;
69087;SDS011;56190;43.562;5.036;2023-04-12T14:00:39;9.88;;;4.10;;
69087;SDS011;56190;43.562;5.036;2023-04-12T14:03:05;7.53;;;3.58;;
69087;SDS011;56190;43.562;5.036;2023-04-12T14:05:30;7.72;;;3.20;;
69087;SDS011;56190;43.562;5.036;2023-04-12T14:07:55;15.50;;;3.33;;
69087;SDS011;56190;43.562;5.036;2023-04-12T14:10:20;6.10;;;2.60;;
69087;SDS011;56190;43.562;5.036;2023-04-12T14:12:46;3.78;;;2.60;;
69087;SDS011;56190;43.562;5.036;2023-04-12T14:15:11;5.40;;;2.80;;
69087;SDS011;56190;43.562;5.036;2023-04-12T14:17:36;5.10;;;2.85;;
69087;SDS011;56190;43.562;5.036;2023-04-12T14:20:01;8.65;;;2.55;;
69087;SDS011;56190;43.562;5.036;2023-04-12T14:22:30;5.95;;;2.45;;
69087;SDS011;56190;43.562;5.036;2023-04-12T14:24:55;5.18;;;2.10;;
69087;SDS011;56190;43.562;5.036;2023-04-12T14:27:20;5.25;;;2.20;;
69087;SDS011;56190;43.562;5.036;2023-04-12T14:29:46;4.80;;;2.67;;
69087;SDS011;56190;43.562;5.036;2023-04-12T14:32:11;4.72;;;2.35;;
69087;SDS011;56190;43.562;5.036;2023-04-12T14:34:37;8.80;;;3.08;;
69087;SDS011;56190;43.562;5.036;2023-04-12T14:37:02;4.63;;;2.75;;
69087;SDS011;56190;43.562;5.036;2023-04-12T14:39:27;7.07;;;2.80;;
69087;SDS011;56190;43.562;5.036;2023-04-12T14:41:54;10.50;;;3.63;;
69087;SDS011;56190;43.562;5.036;2023-04-12T14:44:21;7.80;;;3.13;;
69087;SDS011;56190;43.562;5.036;2023-04-12T14:46:46;7.60;;;2.88;;
69087;SDS011;56190;43.562;5.036;2023-04-12T14:49:11;10.93;;;3.22;;
69087;SDS011;56190;43.562;5.036;2023-04-12T14:51:37;10.48;;;3.60;;
69087;SDS011;56190;43.562;5.036;2023-04-12T14:54:02;5.90;;;2.63;;